createdAt,value
2022-07-28T00:01:42.995Z,1.85
2022-07-28T00:04:11.881Z,2.53
2022-07-28T00:06:40.902Z,1.90
2022-07-28T00:09:10.088Z,2.22
2022-07-28T00:11:51.995Z,2.08
2022-07-28T00:14:24.221Z,2.33
2022-07-28T00:16:54.299Z,2.08
2022-07-28T00:19:23.049Z,2.35
2022-07-28T00:21:51.792Z,2.40
2022-07-28T00:24:20.408Z,2.45
2022-07-28T00:26:48.985Z,2.78
2022-07-28T00:29:17.836Z,2.65
2022-07-28T00:31:46.411Z,2.53
2022-07-28T00:34:16.866Z,2.30
2022-07-28T00:36:45.972Z,2.40
2022-07-28T00:39:15.053Z,2.38
2022-07-28T00:41:43.806Z,2.60
2022-07-28T00:44:13.000Z,1.90
2022-07-28T00:46:41.797Z,2.00
2022-07-28T00:49:10.622Z,1.75
2022-07-28T00:51:41.823Z,2.15
2022-07-28T00:54:11.002Z,2.63
2022-07-28T00:56:40.095Z,2.75
2022-07-28T00:59:08.682Z,2.33
2022-07-28T01:01:37.600Z,2.38
2022-07-28T01:04:07.274Z,2.60
2022-07-28T01:07:01.253Z,2.10
2022-07-28T01:09:54.105Z,2.17
2022-07-28T01:12:42.038Z,2.28
2022-07-28T01:15:23.774Z,2.60
2022-07-28T01:18:03.750Z,2.20
2022-07-28T01:20:40.613Z,2.03
2022-07-28T01:23:51.151Z,2.63
2022-07-28T01:26:55.666Z,2.35
2022-07-28T01:29:51.214Z,2.22
2022-07-28T01:32:26.167Z,2.50
2022-07-28T01:35:01.766Z,2.10
2022-07-28T01:37:37.548Z,2.17
2022-07-28T01:40:12.069Z,2.40
2022-07-28T01:42:48.158Z,2.10
2022-07-28T01:45:19.156Z,2.20
2022-07-28T01:47:54.242Z,2.00
2022-07-28T01:50:27.448Z,2.15
2022-07-28T01:52:59.167Z,2.67
2022-07-28T01:55:29.882Z,2.33
2022-07-28T01:57:59.115Z,2.38
2022-07-28T02:00:29.172Z,2.60
2022-07-28T02:03:03.801Z,2.70
2022-07-28T02:05:34.740Z,2.80
2022-07-28T02:08:07.290Z,2.80
2022-07-28T02:10:38.187Z,2.88
2022-07-28T02:13:08.115Z,3.05
2022-07-28T02:15:40.331Z,2.90
2022-07-28T02:18:12.523Z,2.80
2022-07-28T02:20:42.584Z,2.50
2022-07-28T02:23:15.592Z,3.20
2022-07-28T02:25:45.427Z,2.70
2022-07-28T02:28:17.062Z,3.58
2022-07-28T02:30:56.964Z,3.13
2022-07-28T02:33:59.885Z,3.50
2022-07-28T02:36:27.975Z,3.35
2022-07-28T02:39:04.423Z,3.25
2022-07-28T02:41:40.565Z,2.85
2022-07-28T02:44:15.975Z,2.97
2022-07-28T02:46:49.214Z,2.72
2022-07-28T02:49:26.512Z,3.25
2022-07-28T02:51:59.235Z,3.05
2022-07-28T02:54:29.889Z,3.47
2022-07-28T02:57:01.155Z,3.00
2022-07-28T02:59:31.309Z,3.60
2022-07-28T03:02:01.258Z,3.15
2022-07-28T03:04:49.812Z,3.00
2022-07-28T03:07:19.313Z,3.20
2022-07-28T03:09:49.645Z,3.58
2022-07-28T03:12:18.918Z,3.60
2022-07-28T03:14:47.829Z,3.47
2022-07-28T03:17:17.710Z,4.05
2022-07-28T03:19:47.947Z,4.13
2022-07-28T03:22:16.840Z,3.88
2022-07-28T03:24:50.907Z,3.58
2022-07-28T03:27:25.839Z,3.20
2022-07-28T03:30:03.811Z,3.70
2022-07-28T03:32:36.344Z,3.22
2022-07-28T03:35:08.302Z,3.22
2022-07-28T03:37:53.896Z,3.35
2022-07-28T03:40:26.121Z,3.83
2022-07-28T03:42:56.997Z,3.72
2022-07-28T03:45:27.422Z,3.67
2022-07-28T03:47:58.096Z,4.00
2022-07-28T03:50:31.612Z,3.67
2022-07-28T03:53:03.879Z,3.90
2022-07-28T03:55:32.458Z,3.22
2022-07-28T03:58:01.573Z,3.78
2022-07-28T04:00:30.384Z,4.38
2022-07-28T04:02:58.997Z,4.18
2022-07-28T04:05:29.303Z,4.57
2022-07-28T04:07:57.847Z,4.70
2022-07-28T04:10:26.605Z,4.90
2022-07-28T04:12:57.605Z,4.78
2022-07-28T04:15:28.199Z,4.05
2022-07-28T04:17:58.117Z,5.07
2022-07-28T04:20:29.523Z,4.55
2022-07-28T04:22:58.490Z,4.57
2022-07-28T04:25:28.934Z,4.18
2022-07-28T04:27:57.686Z,3.85
2022-07-28T04:30:28.002Z,5.05
2022-07-28T04:32:57.179Z,3.83
2022-07-28T04:35:27.344Z,3.88
2022-07-28T04:37:58.656Z,4.45
2022-07-28T04:40:28.767Z,4.30
2022-07-28T04:42:57.938Z,3.80
2022-07-28T04:45:26.683Z,5.38
2022-07-28T04:47:55.285Z,4.78
2022-07-28T04:50:24.092Z,4.40
2022-07-28T04:53:00.713Z,5.65
2022-07-28T04:55:29.714Z,4.65
2022-07-28T04:57:58.245Z,5.03
2022-07-28T05:00:27.611Z,4.88
2022-07-28T05:02:58.457Z,5.82
2022-07-28T05:05:27.269Z,3.85
2022-07-28T05:07:55.928Z,3.70
2022-07-28T05:10:26.219Z,3.70
2022-07-28T05:12:54.852Z,4.88
2022-07-28T05:15:23.461Z,3.97
2022-07-28T05:17:52.220Z,4.88
2022-07-28T05:20:20.898Z,4.90
2022-07-28T05:22:53.636Z,5.07
2022-07-28T05:25:25.514Z,5.03
2022-07-28T05:27:55.792Z,5.13
2022-07-28T05:30:24.730Z,5.00
2022-07-28T05:32:59.252Z,4.50
2022-07-28T05:35:28.361Z,4.28
2022-07-28T05:37:56.945Z,4.28
2022-07-28T05:40:27.277Z,4.03
2022-07-28T05:42:56.083Z,3.58
2022-07-28T05:45:25.003Z,3.10
2022-07-28T05:47:54.785Z,4.03
2022-07-28T05:50:25.295Z,3.08
2022-07-28T05:52:54.227Z,3.10
2022-07-28T05:55:22.820Z,3.15
2022-07-28T05:57:54.200Z,3.88
2022-07-28T06:00:24.827Z,3.33
2022-07-28T06:02:54.062Z,3.67
2022-07-28T06:05:24.467Z,3.83
2022-07-28T06:07:53.191Z,4.05
2022-07-28T06:10:24.680Z,2.72
2022-07-28T06:12:57.889Z,3.08
2022-07-28T06:15:28.405Z,2.45
2022-07-28T06:17:57.272Z,2.72
2022-07-28T06:20:27.864Z,2.50
2022-07-28T06:22:57.542Z,1.80
2022-07-28T06:25:29.083Z,2.47
2022-07-28T06:28:00.958Z,2.30
2022-07-28T06:30:30.772Z,2.60
2022-07-28T06:33:00.613Z,2.60
2022-07-28T06:35:29.244Z,2.10
2022-07-28T06:37:58.018Z,2.33
2022-07-28T06:40:26.703Z,2.15
2022-07-28T06:42:55.435Z,2.10
2022-07-28T06:45:25.746Z,2.05
2022-07-28T06:47:55.141Z,2.15
2022-07-28T06:50:25.196Z,2.03
2022-07-28T06:52:56.392Z,1.80
2022-07-28T06:55:25.169Z,1.52
2022-07-28T06:57:54.406Z,1.80
2022-07-28T07:00:23.319Z,1.70
2022-07-28T07:02:53.366Z,2.00
2022-07-28T07:05:21.952Z,2.00
2022-07-28T07:07:50.777Z,1.70
2022-07-28T07:10:19.346Z,1.15
2022-07-28T07:12:47.933Z,1.67
2022-07-28T07:15:16.788Z,1.58
2022-07-28T07:17:45.340Z,1.75
2022-07-28T07:20:17.233Z,1.50
2022-07-28T07:22:48.998Z,1.30
2022-07-28T07:25:19.933Z,1.38
2022-07-28T07:27:48.958Z,1.60
2022-07-28T07:30:18.435Z,1.58
2022-07-28T07:32:47.054Z,1.40
2022-07-28T07:35:17.153Z,1.80
2022-07-28T07:37:45.790Z,1.60
2022-07-28T07:40:14.400Z,1.60
2022-07-28T07:42:43.216Z,1.67
2022-07-28T07:45:12.303Z,1.50
2022-07-28T07:47:40.998Z,1.80
2022-07-28T07:50:10.878Z,1.30
2022-07-28T07:52:40.843Z,1.80
2022-07-28T07:55:10.905Z,1.95
2022-07-28T07:57:39.717Z,1.73
2022-07-28T08:00:28.558Z,1.60
2022-07-28T08:02:58.532Z,1.25
2022-07-28T08:05:34.822Z,1.73
2022-07-28T08:08:07.172Z,1.83
2022-07-28T08:10:36.148Z,1.60
2022-07-28T08:13:06.375Z,1.55
2022-07-28T08:15:35.978Z,2.40
2022-07-28T08:18:05.266Z,1.60
2022-07-28T08:20:34.098Z,1.88
2022-07-28T08:23:02.884Z,1.50
2022-07-28T08:25:35.818Z,1.52
2022-07-28T08:28:05.261Z,1.75
2022-07-28T08:30:33.997Z,1.58
2022-07-28T08:33:03.428Z,1.80
2022-07-28T08:35:34.769Z,1.88
2022-07-28T08:38:05.575Z,1.88
2022-07-28T08:40:39.491Z,1.55
2022-07-28T08:43:21.036Z,1.48
2022-07-28T08:45:57.763Z,1.40
2022-07-28T08:48:31.543Z,1.40
2022-07-28T08:51:05.513Z,1.65
2022-07-28T08:53:37.757Z,1.73
2022-07-28T08:56:10.595Z,1.20
2022-07-28T08:58:39.755Z,1.20
2022-07-28T09:01:11.064Z,1.25
2022-07-28T09:03:40.514Z,1.17
2022-07-28T09:06:09.515Z,1.60
2022-07-28T09:08:38.430Z,1.52
2022-07-28T09:11:08.411Z,1.50
2022-07-28T09:13:38.360Z,1.67
2022-07-28T09:16:07.803Z,1.48
2022-07-28T09:18:36.833Z,1.27
2022-07-28T09:21:06.237Z,1.15
2022-07-28T09:23:46.189Z,1.40
2022-07-28T09:26:17.265Z,1.48
2022-07-28T09:28:53.131Z,1.67
2022-07-28T09:31:23.791Z,1.48
2022-07-28T09:33:58.507Z,1.75
2022-07-28T09:36:27.251Z,1.50
2022-07-28T09:38:56.738Z,1.60
2022-07-28T09:41:26.685Z,1.67
2022-07-28T09:43:55.965Z,1.30
2022-07-28T09:46:29.477Z,1.30
2022-07-28T09:49:01.186Z,1.58
2022-07-28T09:51:32.093Z,1.20
2022-07-28T09:54:10.972Z,1.17
2022-07-28T09:56:45.915Z,1.52
2022-07-28T09:59:16.985Z,1.42
2022-07-28T10:01:56.536Z,1.10
2022-07-28T10:04:34.144Z,1.20
2022-07-28T10:07:06.803Z,1.00
2022-07-28T10:09:35.623Z,1.10
2022-07-28T10:12:18.467Z,0.98
2022-07-28T10:14:47.619Z,1.00
2022-07-28T10:17:29.454Z,0.80
2022-07-28T10:19:59.700Z,1.27
2022-07-28T10:22:33.414Z,1.20
2022-07-28T10:25:06.819Z,1.27
2022-07-28T10:27:37.759Z,1.42
2022-07-28T10:30:08.229Z,1.23
2022-07-28T10:32:42.977Z,1.17
2022-07-28T10:35:14.749Z,1.10
2022-07-28T10:37:52.534Z,1.17
2022-07-28T10:40:29.851Z,2.10
2022-07-28T10:43:01.446Z,2.00
2022-07-28T10:45:55.070Z,1.75
2022-07-28T10:48:23.982Z,1.15
2022-07-28T10:50:54.699Z,1.20
2022-07-28T10:53:37.285Z,1.42
2022-07-28T10:56:16.724Z,1.15
2022-07-28T10:59:04.742Z,1.25
2022-07-28T11:01:53.865Z,1.20
2022-07-28T11:04:59.169Z,1.10
2022-07-28T11:07:40.619Z,1.25
2022-07-28T11:10:20.538Z,1.20
2022-07-28T11:12:51.360Z,1.10
2022-07-28T11:15:33.714Z,0.90
2022-07-28T11:18:07.467Z,1.40
2022-07-28T11:21:10.266Z,1.48
2022-07-28T11:23:54.690Z,1.58
2022-07-28T11:26:36.487Z,1.20
2022-07-28T11:29:25.880Z,1.20
2022-07-28T11:32:06.597Z,1.60
2022-07-28T11:35:08.627Z,1.27
2022-07-28T11:38:14.544Z,1.08
2022-07-28T11:40:45.546Z,0.70
2022-07-28T11:43:36.775Z,1.20
2022-07-28T11:46:38.453Z,1.05
2022-07-28T11:49:28.630Z,1.30
2022-07-28T11:52:22.592Z,1.20
2022-07-28T11:54:58.063Z,0.82
2022-07-28T11:57:29.040Z,0.73
2022-07-28T12:00:01.184Z,1.02
2022-07-28T12:02:33.260Z,0.90
2022-07-28T12:05:12.037Z,1.08
2022-07-28T12:07:45.591Z,1.00
2022-07-28T12:10:53.952Z,1.17
2022-07-28T12:13:28.754Z,1.20
2022-07-28T12:15:57.911Z,1.33
2022-07-28T12:18:26.730Z,1.00
2022-07-28T12:20:58.559Z,0.93
2022-07-28T12:23:39.396Z,0.80
2022-07-28T12:26:31.668Z,0.90
2022-07-28T12:29:01.843Z,0.90
2022-07-28T12:31:33.856Z,0.80
2022-07-28T12:34:06.238Z,0.80
2022-07-28T12:36:37.640Z,1.20
2022-07-28T12:39:12.738Z,1.30
2022-07-28T12:41:41.634Z,1.00
2022-07-28T12:44:12.176Z,1.17
2022-07-28T12:46:48.855Z,0.82
2022-07-28T12:49:23.945Z,1.00
2022-07-28T12:51:54.119Z,1.35
2022-07-28T12:54:37.149Z,1.40
2022-07-28T12:57:06.594Z,0.90
2022-07-28T12:59:38.735Z,1.02
2022-07-28T13:02:09.323Z,1.38
2022-07-28T13:04:46.482Z,1.00
2022-07-28T13:07:26.010Z,1.25
2022-07-28T13:10:05.313Z,0.93
2022-07-28T13:12:34.976Z,1.02
2022-07-28T13:15:07.001Z,0.90
2022-07-28T13:17:51.810Z,0.85
2022-07-28T13:20:22.321Z,0.80
2022-07-28T13:22:53.480Z,0.90
2022-07-28T13:25:22.887Z,1.00
2022-07-28T13:27:55.715Z,1.08
2022-07-28T13:30:24.830Z,0.80
2022-07-28T13:32:54.821Z,0.90
2022-07-28T13:35:23.657Z,0.80
2022-07-28T13:37:53.762Z,0.73
2022-07-28T13:40:22.789Z,0.52
2022-07-28T13:42:53.296Z,0.98
2022-07-28T13:45:26.178Z,0.90
2022-07-28T13:47:59.001Z,1.05
2022-07-28T13:50:28.053Z,1.02
2022-07-28T13:52:58.603Z,0.80
2022-07-28T13:55:27.522Z,0.80
2022-07-28T13:57:56.709Z,1.00
2022-07-28T14:00:25.860Z,1.00
2022-07-28T14:02:54.536Z,0.90
2022-07-28T14:05:23.377Z,0.88
2022-07-28T14:07:52.111Z,1.10
2022-07-28T14:10:26.725Z,1.00
2022-07-28T14:12:56.442Z,0.90
2022-07-28T14:15:25.077Z,0.80
2022-07-28T14:17:53.814Z,1.00
2022-07-28T14:20:22.614Z,0.90
2022-07-28T14:22:52.443Z,0.60
2022-07-28T14:25:22.529Z,0.88
2022-07-28T14:27:54.620Z,0.88
2022-07-28T14:30:26.858Z,1.13
2022-07-28T14:32:58.113Z,1.10
2022-07-28T14:35:26.760Z,1.10
2022-07-28T14:38:41.901Z,1.30
2022-07-28T14:40:45.682Z,1.05
2022-07-28T14:56:38.608Z,0.80
2022-07-28T14:59:07.428Z,0.75
2022-07-28T15:01:36.607Z,0.80
2022-07-28T15:04:06.462Z,0.98
2022-07-28T15:06:35.249Z,1.08
2022-07-28T15:09:04.264Z,1.20
2022-07-28T15:11:32.915Z,0.90
2022-07-28T15:14:03.545Z,0.88
2022-07-28T15:16:32.398Z,1.13
2022-07-28T15:19:01.031Z,1.38
2022-07-28T15:21:34.383Z,1.27
2022-07-28T15:24:07.524Z,1.10
2022-07-28T15:26:36.747Z,1.13
2022-07-28T15:29:07.124Z,1.08
2022-07-28T15:31:37.777Z,1.17
2022-07-28T15:34:08.624Z,0.80
2022-07-28T15:36:39.172Z,1.00
2022-07-28T15:39:09.267Z,0.98
2022-07-28T15:41:38.108Z,0.88
2022-07-28T15:44:09.760Z,1.20
2022-07-28T15:46:39.188Z,1.17
2022-07-28T15:49:09.919Z,1.25
2022-07-28T15:51:39.688Z,1.40
2022-07-28T15:54:08.548Z,1.05
2022-07-28T15:56:38.276Z,0.90
2022-07-28T15:59:09.298Z,1.08
2022-07-28T16:01:45.161Z,1.00
2022-07-28T16:04:14.365Z,1.10
2022-07-28T16:07:00.974Z,0.90
2022-07-28T16:09:45.683Z,1.00
2022-07-28T16:12:15.799Z,1.05
2022-07-28T16:14:45.911Z,1.20
2022-07-28T16:17:14.605Z,1.10
2022-07-28T16:19:49.647Z,1.08
2022-07-28T16:22:20.501Z,1.23
2022-07-28T16:24:50.823Z,1.02
2022-07-28T16:27:19.710Z,0.90
2022-07-28T16:29:50.351Z,1.00
2022-07-28T16:32:19.166Z,0.90
2022-07-28T16:34:49.186Z,0.80
2022-07-28T16:37:19.719Z,5.70
2022-07-28T16:39:49.622Z,1.60
2022-07-28T16:42:18.442Z,0.93
2022-07-28T16:44:48.817Z,0.93
2022-07-28T16:47:17.981Z,1.02
2022-07-28T16:49:46.969Z,0.40
2022-07-28T16:52:16.411Z,0.40
2022-07-28T16:54:45.812Z,0.90
2022-07-28T16:57:16.997Z,0.82
2022-07-28T16:59:48.946Z,0.90
2022-07-28T17:02:20.266Z,0.82
2022-07-28T17:04:49.506Z,0.60
2022-07-28T17:07:18.638Z,1.40
2022-07-28T17:09:47.652Z,1.00
2022-07-28T17:12:16.944Z,0.90
2022-07-28T17:14:45.979Z,1.20
2022-07-28T17:17:14.961Z,0.73
2022-07-28T17:19:47.736Z,0.80
2022-07-28T17:22:16.799Z,1.17
2022-07-28T17:24:48.193Z,1.25
2022-07-28T17:27:37.987Z,1.10
2022-07-28T17:30:07.166Z,1.30
2022-07-28T17:32:36.116Z,1.23
2022-07-28T17:35:08.238Z,1.10
2022-07-28T17:37:58.254Z,1.33
2022-07-28T17:40:27.698Z,1.08
2022-07-28T17:42:56.964Z,0.90
2022-07-28T17:45:26.415Z,1.10
2022-07-28T17:47:55.383Z,1.20
2022-07-28T17:50:25.798Z,1.27
2022-07-28T17:52:55.034Z,0.90
2022-07-28T17:55:57.533Z,0.80
2022-07-28T17:58:29.156Z,1.20
2022-07-28T18:01:10.441Z,1.10
2022-07-28T18:03:59.304Z,1.85
2022-07-28T18:06:36.720Z,1.25
2022-07-28T18:09:08.224Z,1.50
2022-07-28T18:11:57.405Z,1.27
2022-07-28T18:14:28.843Z,1.30
2022-07-28T18:16:58.280Z,1.10
2022-07-28T18:19:27.923Z,1.20
2022-07-28T18:21:58.597Z,1.30
2022-07-28T18:24:27.560Z,1.45
2022-07-28T18:26:58.319Z,1.20
2022-07-28T18:29:38.010Z,1.27
2022-07-28T18:32:09.898Z,1.50
2022-07-28T18:34:40.439Z,1.20
2022-07-28T18:37:11.064Z,1.60
2022-07-28T18:39:40.363Z,1.45
2022-07-28T18:42:09.436Z,1.60
2022-07-28T18:44:38.766Z,1.50
2022-07-28T18:47:10.584Z,1.30
2022-07-28T18:49:39.806Z,1.67
2022-07-28T18:52:10.114Z,1.40
2022-07-28T18:54:39.069Z,1.40
2022-07-28T18:57:08.269Z,1.42
2022-07-28T18:59:43.218Z,1.20
2022-07-28T19:02:15.087Z,1.63
2022-07-28T19:04:44.362Z,1.70
2022-07-28T19:07:16.131Z,1.85
2022-07-28T19:09:45.542Z,1.52
2022-07-28T19:12:15.140Z,1.20
2022-07-28T19:14:44.093Z,1.65
2022-07-28T19:17:13.205Z,1.40
2022-07-28T19:19:42.170Z,1.73
2022-07-28T19:22:11.157Z,1.73
2022-07-28T19:24:41.660Z,1.50
2022-07-28T19:27:11.719Z,1.52
2022-07-28T19:29:40.933Z,1.48
2022-07-28T19:32:09.869Z,1.70
2022-07-28T19:34:38.901Z,1.70
2022-07-28T19:37:08.082Z,1.85
2022-07-28T19:39:47.197Z,1.70
2022-07-28T19:42:16.386Z,1.70
2022-07-28T19:44:45.887Z,1.70
2022-07-28T19:47:14.901Z,1.92
2022-07-28T19:49:44.112Z,2.00
2022-07-28T19:52:13.130Z,2.00
2022-07-28T19:54:42.097Z,2.00
2022-07-28T19:57:12.672Z,2.47
2022-07-28T19:59:43.593Z,2.30
2022-07-28T20:02:14.337Z,2.60
2022-07-28T20:04:43.814Z,2.65
2022-07-28T20:07:12.928Z,2.35
2022-07-28T20:09:41.866Z,2.63
2022-07-28T20:12:12.207Z,2.20
2022-07-28T20:14:41.378Z,2.47
2022-07-28T20:17:16.344Z,2.80
2022-07-28T20:19:58.878Z,2.40
2022-07-28T20:22:27.812Z,3.50
2022-07-28T20:24:56.793Z,3.40
2022-07-28T20:27:27.345Z,3.17
2022-07-28T20:29:56.287Z,3.22
2022-07-28T20:32:25.305Z,2.90
2022-07-28T20:34:56.685Z,2.75
2022-07-28T20:37:36.958Z,2.28
2022-07-28T20:40:09.381Z,2.50
2022-07-28T20:42:39.799Z,2.92
2022-07-28T20:45:09.671Z,3.25
2022-07-28T20:47:38.643Z,3.47
2022-07-28T20:50:08.607Z,3.08
2022-07-28T20:52:37.767Z,2.95
2022-07-28T20:55:07.408Z,2.42
2022-07-28T20:57:36.374Z,2.95
2022-07-28T21:00:08.992Z,3.33
2022-07-28T21:02:38.894Z,2.60
2022-07-28T21:05:09.104Z,2.70
2022-07-28T21:08:04.899Z,3.25
2022-07-28T21:10:36.124Z,3.00
2022-07-28T21:13:05.481Z,3.00
2022-07-28T21:15:35.757Z,3.95
2022-07-28T21:18:05.169Z,2.88
2022-07-28T21:20:34.187Z,3.53
2022-07-28T21:23:03.294Z,3.10
2022-07-28T21:25:32.701Z,3.10
2022-07-28T21:28:19.298Z,3.10
2022-07-28T21:30:49.768Z,3.00
2022-07-28T21:33:22.731Z,2.60
2022-07-28T21:35:52.371Z,3.85
2022-07-28T21:38:21.889Z,2.85
2022-07-28T21:40:50.816Z,3.13
2022-07-28T21:43:19.975Z,2.95
2022-07-28T21:45:50.325Z,3.13
2022-07-28T21:48:23.344Z,3.60
2022-07-28T21:50:53.004Z,3.95
2022-07-28T21:53:22.402Z,3.63
2022-07-28T21:55:52.771Z,3.03
2022-07-28T21:58:22.309Z,3.30
2022-07-28T22:00:52.652Z,3.20
2022-07-28T22:03:21.619Z,3.50
2022-07-28T22:05:50.726Z,3.80
2022-07-28T22:08:19.701Z,3.30
2022-07-28T22:10:48.327Z,3.30
2022-07-28T22:13:18.724Z,3.45
2022-07-28T22:15:47.417Z,3.55
2022-07-28T22:18:17.712Z,3.78
2022-07-28T22:20:46.786Z,3.47
2022-07-28T22:23:18.629Z,3.58
2022-07-28T22:25:58.346Z,3.47
2022-07-28T22:28:29.518Z,3.55
2022-07-28T22:31:09.311Z,3.78
2022-07-28T22:33:43.543Z,3.58
2022-07-28T22:36:12.652Z,3.47
2022-07-28T22:38:41.286Z,3.40
2022-07-28T22:41:10.595Z,3.35
2022-07-28T22:43:39.446Z,3.67
2022-07-28T22:46:10.546Z,3.60
2022-07-28T22:48:39.565Z,4.28
2022-07-28T22:51:13.401Z,4.88
2022-07-28T22:54:00.581Z,4.50
2022-07-28T22:59:17.702Z,4.38
2022-07-28T23:01:46.727Z,4.15
2022-07-28T23:04:15.803Z,4.10
2022-07-28T23:06:46.610Z,4.05
2022-07-28T23:09:15.478Z,4.35
2022-07-28T23:11:55.542Z,4.20
2022-07-28T23:14:25.041Z,4.57
2022-07-28T23:16:53.741Z,4.00
2022-07-28T23:19:22.441Z,4.50
2022-07-28T23:21:52.797Z,4.05
2022-07-28T23:24:21.405Z,3.65
2022-07-28T23:26:50.237Z,4.10
2022-07-28T23:29:19.096Z,3.95
2022-07-28T23:31:47.808Z,4.25
2022-07-28T23:34:16.801Z,4.00
2022-07-28T23:36:47.707Z,3.70
2022-07-28T23:39:17.733Z,4.00
2022-07-28T23:41:47.821Z,3.83
2022-07-28T23:44:16.773Z,3.40
2022-07-28T23:46:45.606Z,4.30
2022-07-28T23:49:15.772Z,3.47
2022-07-28T23:51:47.693Z,3.75
2022-07-28T23:54:19.321Z,4.30
2022-07-28T23:56:52.031Z,3.95
2022-07-28T23:59:20.856Z,4.35
